sensor_id;sensor_type;location;lat;lon;timestamp;temperature;humidity
17399;DHT22;8817;48.170;8.592;2022-10-31T00:01:50;18.30;45.00
17399;DHT22;8817;48.170;8.592;2022-10-31T00:04:17;18.30;45.00
17399;DHT22;8817;48.170;8.592;2022-10-31T00:06:44;18.20;44.90
17399;DHT22;8817;48.170;8.592;2022-10-31T00:09:11;18.20;44.90
17399;DHT22;8817;48.170;8.592;2022-10-31T00:11:38;18.20;44.90
17399;DHT22;8817;48.170;8.592;2022-10-31T00:14:05;18.10;44.90
17399;DHT22;8817;48.170;8.592;2022-10-31T00:16:34;18.10;44.90
17399;DHT22;8817;48.170;8.592;2022-10-31T00:19:03;18.10;44.90
17399;DHT22;8817;48.170;8.592;2022-10-31T00:21:31;18.10;44.90
17399;DHT22;8817;48.170;8.592;2022-10-31T00:23:59;18.10;45.50
17399;DHT22;8817;48.170;8.592;2022-10-31T00:26:27;18.00;44.90
17399;DHT22;8817;48.170;8.592;2022-10-31T00:28:54;18.00;44.90
17399;DHT22;8817;48.170;8.592;2022-10-31T00:31:21;18.00;44.90
17399;DHT22;8817;48.170;8.592;2022-10-31T00:33:49;18.00;45.00
17399;DHT22;8817;48.170;8.592;2022-10-31T00:36:18;18.00;45.00
17399;DHT22;8817;48.170;8.592;2022-10-31T00:38:46;18.00;45.00
17399;DHT22;8817;48.170;8.592;2022-10-31T00:41:15;17.90;45.00
17399;DHT22;8817;48.170;8.592;2022-10-31T00:43:42;17.90;45.00
17399;DHT22;8817;48.170;8.592;2022-10-31T00:46:09;18.00;45.10
17399;DHT22;8817;48.170;8.592;2022-10-31T00:48:36;17.90;45.00
17399;DHT22;8817;48.170;8.592;2022-10-31T00:51:05;17.90;45.00
17399;DHT22;8817;48.170;8.592;2022-10-31T00:53:32;17.90;45.00
17399;DHT22;8817;48.170;8.592;2022-10-31T00:55:59;17.90;45.00
17399;DHT22;8817;48.170;8.592;2022-10-31T00:58:26;17.90;45.00
17399;DHT22;8817;48.170;8.592;2022-10-31T01:00:53;17.90;45.00
17399;DHT22;8817;48.170;8.592;2022-10-31T01:03:22;17.90;45.00
17399;DHT22;8817;48.170;8.592;2022-10-31T01:05:59;17.80;44.90
17399;DHT22;8817;48.170;8.592;2022-10-31T01:08:28;17.80;45.00
17399;DHT22;8817;48.170;8.592;2022-10-31T01:11:03;17.80;45.60
17399;DHT22;8817;48.170;8.592;2022-10-31T01:13:30;17.70;45.00
17399;DHT22;8817;48.170;8.592;2022-10-31T01:15:59;17.70;45.00
17399;DHT22;8817;48.170;8.592;2022-10-31T01:18:26;17.70;45.00
17399;DHT22;8817;48.170;8.592;2022-10-31T01:21:01;17.70;45.00
17399;DHT22;8817;48.170;8.592;2022-10-31T01:23:30;17.70;45.00
17399;DHT22;8817;48.170;8.592;2022-10-31T01:26:02;17.70;45.00
17399;DHT22;8817;48.170;8.592;2022-10-31T01:28:29;17.60;45.00
17399;DHT22;8817;48.170;8.592;2022-10-31T01:31:00;17.60;45.00
17399;DHT22;8817;48.170;8.592;2022-10-31T01:33:27;17.60;45.00
17399;DHT22;8817;48.170;8.592;2022-10-31T01:35:54;17.60;45.00
17399;DHT22;8817;48.170;8.592;2022-10-31T01:38:21;17.60;45.00
17399;DHT22;8817;48.170;8.592;2022-10-31T01:40:50;17.60;45.00
17399;DHT22;8817;48.170;8.592;2022-10-31T01:43:17;17.50;45.00
17399;DHT22;8817;48.170;8.592;2022-10-31T01:45:47;17.50;44.90
17399;DHT22;8817;48.170;8.592;2022-10-31T01:48:18;17.40;44.90
17399;DHT22;8817;48.170;8.592;2022-10-31T01:50:47;17.40;44.90
17399;DHT22;8817;48.170;8.592;2022-10-31T01:53:15;17.40;44.90
17399;DHT22;8817;48.170;8.592;2022-10-31T01:55:44;17.30;44.90
17399;DHT22;8817;48.170;8.592;2022-10-31T01:58:14;17.30;45.00
17399;DHT22;8817;48.170;8.592;2022-10-31T02:00:45;17.30;45.10
17399;DHT22;8817;48.170;8.592;2022-10-31T02:03:14;17.20;45.20
17399;DHT22;8817;48.170;8.592;2022-10-31T02:05:41;17.20;45.10
17399;DHT22;8817;48.170;8.592;2022-10-31T02:08:14;17.20;45.20
17399;DHT22;8817;48.170;8.592;2022-10-31T02:10:43;17.20;45.20
17399;DHT22;8817;48.170;8.592;2022-10-31T02:13:12;17.20;45.20
17399;DHT22;8817;48.170;8.592;2022-10-31T02:15:40;17.20;45.20
17399;DHT22;8817;48.170;8.592;2022-10-31T02:18:09;17.20;45.20
17399;DHT22;8817;48.170;8.592;2022-10-31T02:20:42;17.20;45.20
17399;DHT22;8817;48.170;8.592;2022-10-31T02:23:51;17.20;45.30
17399;DHT22;8817;48.170;8.592;2022-10-31T02:32:14;17.20;45.20
17399;DHT22;8817;48.170;8.592;2022-10-31T02:34:52;17.20;45.10
17399;DHT22;8817;48.170;8.592;2022-10-31T02:37:25;17.10;45.10
17399;DHT22;8817;48.170;8.592;2022-10-31T02:39:59;17.10;45.10
17399;DHT22;8817;48.170;8.592;2022-10-31T02:42:36;17.10;45.10
17399;DHT22;8817;48.170;8.592;2022-10-31T02:45:10;17.10;45.20
17399;DHT22;8817;48.170;8.592;2022-10-31T02:47:40;17.10;45.10
17399;DHT22;8817;48.170;8.592;2022-10-31T02:50:13;17.00;45.10
17399;DHT22;8817;48.170;8.592;2022-10-31T02:52:40;17.00;45.10
17399;DHT22;8817;48.170;8.592;2022-10-31T02:55:12;17.00;45.20
17399;DHT22;8817;48.170;8.592;2022-10-31T02:57:40;16.90;45.10
17399;DHT22;8817;48.170;8.592;2022-10-31T03:00:09;16.90;45.10
17399;DHT22;8817;48.170;8.592;2022-10-31T03:02:49;16.90;45.20
17399;DHT22;8817;48.170;8.592;2022-10-31T03:05:40;16.90;45.20
17399;DHT22;8817;48.170;8.592;2022-10-31T03:08:17;16.90;45.20
17399;DHT22;8817;48.170;8.592;2022-10-31T03:10:52;16.90;45.10
17399;DHT22;8817;48.170;8.592;2022-10-31T03:13:28;16.80;45.10
17399;DHT22;8817;48.170;8.592;2022-10-31T03:16:06;16.80;45.20
17399;DHT22;8817;48.170;8.592;2022-10-31T03:18:40;16.80;45.20
17399;DHT22;8817;48.170;8.592;2022-10-31T03:21:11;16.70;45.20
17399;DHT22;8817;48.170;8.592;2022-10-31T03:23:40;16.70;45.30
17399;DHT22;8817;48.170;8.592;2022-10-31T03:26:09;16.70;45.30
17399;DHT22;8817;48.170;8.592;2022-10-31T03:28:43;16.70;45.30
17399;DHT22;8817;48.170;8.592;2022-10-31T03:31:13;16.70;45.30
17399;DHT22;8817;48.170;8.592;2022-10-31T03:33:44;16.70;45.30
17399;DHT22;8817;48.170;8.592;2022-10-31T03:36:14;16.70;45.30
17399;DHT22;8817;48.170;8.592;2022-10-31T03:38:42;16.70;45.30
17399;DHT22;8817;48.170;8.592;2022-10-31T03:41:13;16.70;45.30
17399;DHT22;8817;48.170;8.592;2022-10-31T03:43:48;16.60;45.30
17399;DHT22;8817;48.170;8.592;2022-10-31T03:46:18;16.60;45.30
17399;DHT22;8817;48.170;8.592;2022-10-31T03:48:46;16.60;45.30
17399;DHT22;8817;48.170;8.592;2022-10-31T03:51:18;16.60;45.40
17399;DHT22;8817;48.170;8.592;2022-10-31T03:53:48;16.60;45.40
17399;DHT22;8817;48.170;8.592;2022-10-31T03:56:24;16.60;45.40
17399;DHT22;8817;48.170;8.592;2022-10-31T03:58:58;16.60;45.40
17399;DHT22;8817;48.170;8.592;2022-10-31T04:01:29;16.60;45.40
17399;DHT22;8817;48.170;8.592;2022-10-31T04:04:00;16.60;45.40
17399;DHT22;8817;48.170;8.592;2022-10-31T04:06:30;16.50;45.40
17399;DHT22;8817;48.170;8.592;2022-10-31T04:09:00;16.50;45.40
17399;DHT22;8817;48.170;8.592;2022-10-31T04:11:30;16.50;45.50
17399;DHT22;8817;48.170;8.592;2022-10-31T04:13:58;16.50;45.50
17399;DHT22;8817;48.170;8.592;2022-10-31T04:16:26;16.50;45.50
17399;DHT22;8817;48.170;8.592;2022-10-31T04:18:54;16.50;45.40
17399;DHT22;8817;48.170;8.592;2022-10-31T04:21:28;16.50;45.40
17399;DHT22;8817;48.170;8.592;2022-10-31T04:23:55;16.50;45.50
17399;DHT22;8817;48.170;8.592;2022-10-31T04:26:22;16.50;45.50
17399;DHT22;8817;48.170;8.592;2022-10-31T04:28:49;16.40;45.40
17399;DHT22;8817;48.170;8.592;2022-10-31T04:31:16;16.40;45.40
17399;DHT22;8817;48.170;8.592;2022-10-31T04:33:43;16.40;45.50
17399;DHT22;8817;48.170;8.592;2022-10-31T04:36:10;16.40;45.50
17399;DHT22;8817;48.170;8.592;2022-10-31T04:38:38;16.40;45.50
17399;DHT22;8817;48.170;8.592;2022-10-31T04:41:05;16.40;45.40
17399;DHT22;8817;48.170;8.592;2022-10-31T04:43:32;16.40;45.40
17399;DHT22;8817;48.170;8.592;2022-10-31T04:45:59;16.30;45.30
17399;DHT22;8817;48.170;8.592;2022-10-31T04:48:26;16.30;45.40
17399;DHT22;8817;48.170;8.592;2022-10-31T04:50:57;16.30;45.40
17399;DHT22;8817;48.170;8.592;2022-10-31T04:53:24;16.30;45.50
17399;DHT22;8817;48.170;8.592;2022-10-31T04:55:52;16.20;45.40
17399;DHT22;8817;48.170;8.592;2022-10-31T04:58:19;16.20;45.50
17399;DHT22;8817;48.170;8.592;2022-10-31T05:00:46;16.20;45.50
17399;DHT22;8817;48.170;8.592;2022-10-31T05:03:13;16.20;45.40
17399;DHT22;8817;48.170;8.592;2022-10-31T05:05:41;16.20;45.40
17399;DHT22;8817;48.170;8.592;2022-10-31T05:08:08;16.20;45.50
17399;DHT22;8817;48.170;8.592;2022-10-31T05:10:35;16.10;46.10
17399;DHT22;8817;48.170;8.592;2022-10-31T05:13:04;16.10;45.50
17399;DHT22;8817;48.170;8.592;2022-10-31T05:15:31;16.10;45.50
17399;DHT22;8817;48.170;8.592;2022-10-31T05:17:59;16.10;45.50
17399;DHT22;8817;48.170;8.592;2022-10-31T05:20:27;16.00;45.50
17399;DHT22;8817;48.170;8.592;2022-10-31T05:22:56;16.00;45.50
17399;DHT22;8817;48.170;8.592;2022-10-31T05:25:25;16.00;45.60
17399;DHT22;8817;48.170;8.592;2022-10-31T05:27:54;16.00;45.60
17399;DHT22;8817;48.170;8.592;2022-10-31T05:30:24;16.00;45.60
17399;DHT22;8817;48.170;8.592;2022-10-31T05:32:52;16.00;45.60
17399;DHT22;8817;48.170;8.592;2022-10-31T05:35:21;16.00;45.60
17399;DHT22;8817;48.170;8.592;2022-10-31T05:37:48;16.00;45.60
17399;DHT22;8817;48.170;8.592;2022-10-31T05:40:18;15.90;45.60
17399;DHT22;8817;48.170;8.592;2022-10-31T05:42:46;15.90;45.60
17399;DHT22;8817;48.170;8.592;2022-10-31T05:45:15;15.90;45.60
17399;DHT22;8817;48.170;8.592;2022-10-31T05:47:50;15.90;45.70
17399;DHT22;8817;48.170;8.592;2022-10-31T05:50:17;15.90;45.70
17399;DHT22;8817;48.170;8.592;2022-10-31T05:52:44;15.90;45.60
17399;DHT22;8817;48.170;8.592;2022-10-31T05:55:11;15.80;45.60
17399;DHT22;8817;48.170;8.592;2022-10-31T05:57:38;15.90;45.60
17399;DHT22;8817;48.170;8.592;2022-10-31T06:00:06;15.80;45.60
17399;DHT22;8817;48.170;8.592;2022-10-31T06:02:33;15.80;45.60
17399;DHT22;8817;48.170;8.592;2022-10-31T06:05:02;15.80;45.60
17399;DHT22;8817;48.170;8.592;2022-10-31T06:07:32;15.80;45.70
17399;DHT22;8817;48.170;8.592;2022-10-31T06:09:59;15.70;45.60
17399;DHT22;8817;48.170;8.592;2022-10-31T06:12:26;15.70;45.70
17399;DHT22;8817;48.170;8.592;2022-10-31T06:14:53;15.70;45.80
17399;DHT22;8817;48.170;8.592;2022-10-31T06:17:20;15.70;45.80
17399;DHT22;8817;48.170;8.592;2022-10-31T06:19:47;15.70;45.90
17399;DHT22;8817;48.170;8.592;2022-10-31T06:22:15;15.70;45.90
17399;DHT22;8817;48.170;8.592;2022-10-31T06:24:42;15.70;45.90
17399;DHT22;8817;48.170;8.592;2022-10-31T06:27:09;15.70;46.00
17399;DHT22;8817;48.170;8.592;2022-10-31T06:29:36;15.70;46.00
17399;DHT22;8817;48.170;8.592;2022-10-31T06:32:03;15.70;46.10
17399;DHT22;8817;48.170;8.592;2022-10-31T06:34:30;15.70;46.10
17399;DHT22;8817;48.170;8.592;2022-10-31T06:36:57;15.70;46.10
17399;DHT22;8817;48.170;8.592;2022-10-31T06:39:25;15.80;46.20
17399;DHT22;8817;48.170;8.592;2022-10-31T06:41:52;15.80;46.20
17399;DHT22;8817;48.170;8.592;2022-10-31T06:44:19;15.80;46.20
17399;DHT22;8817;48.170;8.592;2022-10-31T06:46:46;15.90;46.20
17399;DHT22;8817;48.170;8.592;2022-10-31T06:49:14;15.90;46.30
17399;DHT22;8817;48.170;8.592;2022-10-31T06:51:40;15.90;46.20
17399;DHT22;8817;48.170;8.592;2022-10-31T06:54:07;16.00;46.30
17399;DHT22;8817;48.170;8.592;2022-10-31T06:56:36;16.00;46.30
17399;DHT22;8817;48.170;8.592;2022-10-31T06:59:03;16.00;46.30
17399;DHT22;8817;48.170;8.592;2022-10-31T07:01:30;16.10;46.40
17399;DHT22;8817;48.170;8.592;2022-10-31T07:03:57;16.10;46.40
17399;DHT22;8817;48.170;8.592;2022-10-31T07:06:24;16.20;46.50
17399;DHT22;8817;48.170;8.592;2022-10-31T07:08:51;16.20;46.50
17399;DHT22;8817;48.170;8.592;2022-10-31T07:11:18;16.30;46.60
17399;DHT22;8817;48.170;8.592;2022-10-31T07:13:46;16.30;46.60
17399;DHT22;8817;48.170;8.592;2022-10-31T07:16:13;16.30;46.60
17399;DHT22;8817;48.170;8.592;2022-10-31T07:18:40;16.40;46.70
17399;DHT22;8817;48.170;8.592;2022-10-31T07:21:07;16.50;46.70
17399;DHT22;8817;48.170;8.592;2022-10-31T07:23:34;16.50;46.70
17399;DHT22;8817;48.170;8.592;2022-10-31T07:26:02;16.60;46.80
17399;DHT22;8817;48.170;8.592;2022-10-31T07:28:29;16.60;46.80
17399;DHT22;8817;48.170;8.592;2022-10-31T07:30:57;16.70;46.80
17399;DHT22;8817;48.170;8.592;2022-10-31T07:33:24;16.70;46.80
17399;DHT22;8817;48.170;8.592;2022-10-31T07:35:52;16.80;46.90
17399;DHT22;8817;48.170;8.592;2022-10-31T07:38:19;16.80;46.90
17399;DHT22;8817;48.170;8.592;2022-10-31T07:40:50;16.90;46.90
17399;DHT22;8817;48.170;8.592;2022-10-31T07:43:18;16.90;46.90
17399;DHT22;8817;48.170;8.592;2022-10-31T07:45:49;16.90;46.90
17399;DHT22;8817;48.170;8.592;2022-10-31T07:48:18;17.00;47.00
17399;DHT22;8817;48.170;8.592;2022-10-31T07:50:45;17.10;47.00
17399;DHT22;8817;48.170;8.592;2022-10-31T07:53:13;17.10;47.00
17399;DHT22;8817;48.170;8.592;2022-10-31T07:55:40;17.10;47.00
17399;DHT22;8817;48.170;8.592;2022-10-31T07:58:09;17.20;47.00
17399;DHT22;8817;48.170;8.592;2022-10-31T08:00:39;17.20;47.00
17399;DHT22;8817;48.170;8.592;2022-10-31T08:03:08;17.30;47.10
17399;DHT22;8817;48.170;8.592;2022-10-31T08:05:37;17.40;47.10
17399;DHT22;8817;48.170;8.592;2022-10-31T08:08:06;17.40;47.10
17399;DHT22;8817;48.170;8.592;2022-10-31T08:10:34;17.50;47.20
17399;DHT22;8817;48.170;8.592;2022-10-31T08:13:03;17.50;47.20
17399;DHT22;8817;48.170;8.592;2022-10-31T08:15:30;17.60;47.20
17399;DHT22;8817;48.170;8.592;2022-10-31T08:17:57;17.60;47.20
17399;DHT22;8817;48.170;8.592;2022-10-31T08:20:24;17.70;47.30
17399;DHT22;8817;48.170;8.592;2022-10-31T08:22:56;17.70;47.20
17399;DHT22;8817;48.170;8.592;2022-10-31T08:25:24;17.70;47.30
17399;DHT22;8817;48.170;8.592;2022-10-31T08:27:52;17.80;47.30
17399;DHT22;8817;48.170;8.592;2022-10-31T08:30:20;17.80;47.30
17399;DHT22;8817;48.170;8.592;2022-10-31T08:32:47;17.90;47.30
17399;DHT22;8817;48.170;8.592;2022-10-31T08:35:14;18.00;47.40
17399;DHT22;8817;48.170;8.592;2022-10-31T08:37:41;18.00;47.40
17399;DHT22;8817;48.170;8.592;2022-10-31T08:40:11;18.00;47.40
17399;DHT22;8817;48.170;8.592;2022-10-31T08:42:38;18.10;47.50
17399;DHT22;8817;48.170;8.592;2022-10-31T08:45:06;18.10;47.50
17399;DHT22;8817;48.170;8.592;2022-10-31T08:47:32;18.20;47.60
17399;DHT22;8817;48.170;8.592;2022-10-31T08:49:59;18.30;47.60
17399;DHT22;8817;48.170;8.592;2022-10-31T08:52:26;18.30;47.70
17399;DHT22;8817;48.170;8.592;2022-10-31T08:54:53;18.40;47.70
17399;DHT22;8817;48.170;8.592;2022-10-31T08:57:24;18.40;47.70
17399;DHT22;8817;48.170;8.592;2022-10-31T08:59:51;18.50;47.80
17399;DHT22;8817;48.170;8.592;2022-10-31T09:02:18;18.50;47.70
17399;DHT22;8817;48.170;8.592;2022-10-31T09:04:45;18.60;47.80
17399;DHT22;8817;48.170;8.592;2022-10-31T09:07:12;18.70;47.80
17399;DHT22;8817;48.170;8.592;2022-10-31T09:09:38;18.70;47.80
17399;DHT22;8817;48.170;8.592;2022-10-31T09:12:05;18.80;48.40
17399;DHT22;8817;48.170;8.592;2022-10-31T09:14:34;18.90;47.90
17399;DHT22;8817;48.170;8.592;2022-10-31T09:17:01;18.90;47.90
17399;DHT22;8817;48.170;8.592;2022-10-31T09:19:28;19.00;47.90
17399;DHT22;8817;48.170;8.592;2022-10-31T09:21:55;19.00;47.90
17399;DHT22;8817;48.170;8.592;2022-10-31T09:24:22;19.10;48.00
17399;DHT22;8817;48.170;8.592;2022-10-31T09:26:49;19.10;48.00
17399;DHT22;8817;48.170;8.592;2022-10-31T09:29:16;19.20;48.00
17399;DHT22;8817;48.170;8.592;2022-10-31T09:31:44;19.30;48.10
17399;DHT22;8817;48.170;8.592;2022-10-31T09:34:11;19.30;48.10
17399;DHT22;8817;48.170;8.592;2022-10-31T09:36:38;19.40;48.10
17399;DHT22;8817;48.170;8.592;2022-10-31T09:39:05;19.40;48.70
17399;DHT22;8817;48.170;8.592;2022-10-31T09:41:48;19.50;48.20
17399;DHT22;8817;48.170;8.592;2022-10-31T09:44:22;19.50;48.20
17399;DHT22;8817;48.170;8.592;2022-10-31T09:47:00;19.60;48.30
17399;DHT22;8817;48.170;8.592;2022-10-31T09:49:36;19.70;48.30
17399;DHT22;8817;48.170;8.592;2022-10-31T09:52:11;19.80;48.40
17399;DHT22;8817;48.170;8.592;2022-10-31T09:54:43;19.90;48.50
17399;DHT22;8817;48.170;8.592;2022-10-31T09:57:13;20.00;48.50
17399;DHT22;8817;48.170;8.592;2022-10-31T09:59:43;20.10;48.50
17399;DHT22;8817;48.170;8.592;2022-10-31T10:02:16;20.10;48.50
17399;DHT22;8817;48.170;8.592;2022-10-31T10:04:51;20.20;48.60
17399;DHT22;8817;48.170;8.592;2022-10-31T10:07:33;20.30;48.60
17399;DHT22;8817;48.170;8.592;2022-10-31T10:10:13;20.40;48.60
17399;DHT22;8817;48.170;8.592;2022-10-31T10:12:50;20.50;48.60
17399;DHT22;8817;48.170;8.592;2022-10-31T10:15:41;20.60;48.60
17399;DHT22;8817;48.170;8.592;2022-10-31T10:18:22;20.60;48.50
17399;DHT22;8817;48.170;8.592;2022-10-31T10:21:00;20.70;48.50
17399;DHT22;8817;48.170;8.592;2022-10-31T10:23:43;20.80;49.10
17399;DHT22;8817;48.170;8.592;2022-10-31T10:26:17;20.90;48.50
17399;DHT22;8817;48.170;8.592;2022-10-31T10:28:47;21.00;48.50
17399;DHT22;8817;48.170;8.592;2022-10-31T10:31:16;21.00;48.50
17399;DHT22;8817;48.170;8.592;2022-10-31T10:33:55;21.10;48.50
17399;DHT22;8817;48.170;8.592;2022-10-31T10:36:27;21.20;48.50
17399;DHT22;8817;48.170;8.592;2022-10-31T10:39:00;21.20;48.50
17399;DHT22;8817;48.170;8.592;2022-10-31T10:41:31;21.30;48.50
17399;DHT22;8817;48.170;8.592;2022-10-31T10:43:59;21.40;48.50
17399;DHT22;8817;48.170;8.592;2022-10-31T10:46:32;21.40;48.50
17399;DHT22;8817;48.170;8.592;2022-10-31T10:49:23;21.50;48.50
17399;DHT22;8817;48.170;8.592;2022-10-31T10:51:58;21.50;48.50
17399;DHT22;8817;48.170;8.592;2022-10-31T10:54:54;21.60;48.50
17399;DHT22;8817;48.170;8.592;2022-10-31T10:57:34;21.60;48.50
17399;DHT22;8817;48.170;8.592;2022-10-31T11:00:16;21.70;48.50
17399;DHT22;8817;48.170;8.592;2022-10-31T11:02:44;21.70;48.40
17399;DHT22;8817;48.170;8.592;2022-10-31T11:05:22;21.80;48.40
17399;DHT22;8817;48.170;8.592;2022-10-31T11:07:49;21.80;48.50
17399;DHT22;8817;48.170;8.592;2022-10-31T11:10:17;21.80;48.40
17399;DHT22;8817;48.170;8.592;2022-10-31T11:12:45;21.90;48.50
17399;DHT22;8817;48.170;8.592;2022-10-31T11:15:24;21.90;48.50
17399;DHT22;8817;48.170;8.592;2022-10-31T11:17:54;21.90;48.50
17399;DHT22;8817;48.170;8.592;2022-10-31T11:20:29;21.90;48.50
17399;DHT22;8817;48.170;8.592;2022-10-31T11:23:17;21.90;48.40
17399;DHT22;8817;48.170;8.592;2022-10-31T11:25:52;22.00;48.80
17399;DHT22;8817;48.170;8.592;2022-10-31T11:28:20;22.00;48.40
17399;DHT22;8817;48.170;8.592;2022-10-31T11:30:52;22.00;48.40
17399;DHT22;8817;48.170;8.592;2022-10-31T11:33:26;22.00;48.40
17399;DHT22;8817;48.170;8.592;2022-10-31T11:35:56;22.00;48.40
17399;DHT22;8817;48.170;8.592;2022-10-31T11:38:29;22.10;48.40
17399;DHT22;8817;48.170;8.592;2022-10-31T11:41:02;22.10;48.40
17399;DHT22;8817;48.170;8.592;2022-10-31T11:43:31;22.10;48.40
17399;DHT22;8817;48.170;8.592;2022-10-31T11:45:58;22.10;48.40
17399;DHT22;8817;48.170;8.592;2022-10-31T11:48:25;22.10;48.40
17399;DHT22;8817;48.170;8.592;2022-10-31T11:50:56;22.10;48.50
17399;DHT22;8817;48.170;8.592;2022-10-31T11:53:27;22.10;48.40
17399;DHT22;8817;48.170;8.592;2022-10-31T11:56:09;22.10;48.40
17399;DHT22;8817;48.170;8.592;2022-10-31T11:58:37;22.10;48.40
17399;DHT22;8817;48.170;8.592;2022-10-31T12:01:04;22.10;48.40
17399;DHT22;8817;48.170;8.592;2022-10-31T12:03:41;22.10;48.40
17399;DHT22;8817;48.170;8.592;2022-10-31T12:06:14;22.10;48.50
17399;DHT22;8817;48.170;8.592;2022-10-31T12:08:43;22.10;48.50
17399;DHT22;8817;48.170;8.592;2022-10-31T12:11:22;22.10;48.50
17399;DHT22;8817;48.170;8.592;2022-10-31T12:14:01;22.10;48.70
17399;DHT22;8817;48.170;8.592;2022-10-31T12:16:33;22.20;48.90
17399;DHT22;8817;48.170;8.592;2022-10-31T12:19:05;22.20;48.90
17399;DHT22;8817;48.170;8.592;2022-10-31T12:21:53;22.30;48.90
17399;DHT22;8817;48.170;8.592;2022-10-31T12:27:27;22.40;48.90
17399;DHT22;8817;48.170;8.592;2022-10-31T12:30:11;22.50;48.90
17399;DHT22;8817;48.170;8.592;2022-10-31T12:32:57;22.50;48.80
17399;DHT22;8817;48.170;8.592;2022-10-31T12:35:44;22.50;48.70
17399;DHT22;8817;48.170;8.592;2022-10-31T12:38:34;22.50;48.70
17399;DHT22;8817;48.170;8.592;2022-10-31T12:41:34;22.60;48.80
17399;DHT22;8817;48.170;8.592;2022-10-31T12:44:06;22.60;48.80
17399;DHT22;8817;48.170;8.592;2022-10-31T12:46:50;22.70;48.90
17399;DHT22;8817;48.170;8.592;2022-10-31T12:49:31;22.70;49.00
17399;DHT22;8817;48.170;8.592;2022-10-31T12:52:12;22.80;49.00
17399;DHT22;8817;48.170;8.592;2022-10-31T12:55:00;22.80;49.10
17399;DHT22;8817;48.170;8.592;2022-10-31T12:57:34;22.90;49.30
17399;DHT22;8817;48.170;8.592;2022-10-31T13:00:05;23.10;49.50
17399;DHT22;8817;48.170;8.592;2022-10-31T13:02:40;23.20;49.60
17399;DHT22;8817;48.170;8.592;2022-10-31T13:05:14;23.40;49.70
17399;DHT22;8817;48.170;8.592;2022-10-31T13:07:44;23.60;49.70
17399;DHT22;8817;48.170;8.592;2022-10-31T13:10:19;23.70;49.70
17399;DHT22;8817;48.170;8.592;2022-10-31T13:12:49;23.90;49.80
17399;DHT22;8817;48.170;8.592;2022-10-31T13:15:21;24.10;49.80
17399;DHT22;8817;48.170;8.592;2022-10-31T13:17:51;24.20;49.80
17399;DHT22;8817;48.170;8.592;2022-10-31T13:20:23;24.40;49.80
17399;DHT22;8817;48.170;8.592;2022-10-31T13:22:53;24.60;49.80
17399;DHT22;8817;48.170;8.592;2022-10-31T13:25:25;24.70;49.80
17399;DHT22;8817;48.170;8.592;2022-10-31T13:27:57;24.90;49.70
17399;DHT22;8817;48.170;8.592;2022-10-31T13:30:27;25.10;49.70
17399;DHT22;8817;48.170;8.592;2022-10-31T13:33:00;25.20;49.70
17399;DHT22;8817;48.170;8.592;2022-10-31T13:35:35;25.40;49.60
17399;DHT22;8817;48.170;8.592;2022-10-31T13:38:18;25.60;49.60
17399;DHT22;8817;48.170;8.592;2022-10-31T13:40:56;25.70;49.50
17399;DHT22;8817;48.170;8.592;2022-10-31T13:43:31;25.90;49.50
17399;DHT22;8817;48.170;8.592;2022-10-31T13:45:59;26.10;49.50
17399;DHT22;8817;48.170;8.592;2022-10-31T13:48:35;26.20;49.40
17399;DHT22;8817;48.170;8.592;2022-10-31T13:51:04;26.40;49.30
17399;DHT22;8817;48.170;8.592;2022-10-31T13:53:44;26.50;49.30
17399;DHT22;8817;48.170;8.592;2022-10-31T13:56:18;26.70;49.30
17399;DHT22;8817;48.170;8.592;2022-10-31T13:59:19;26.90;49.10
17399;DHT22;8817;48.170;8.592;2022-10-31T14:01:50;27.00;49.00
17399;DHT22;8817;48.170;8.592;2022-10-31T14:04:19;27.10;48.90
17399;DHT22;8817;48.170;8.592;2022-10-31T14:06:56;27.20;49.00
17399;DHT22;8817;48.170;8.592;2022-10-31T14:09:28;27.40;48.90
17399;DHT22;8817;48.170;8.592;2022-10-31T14:12:00;27.60;49.00
17399;DHT22;8817;48.170;8.592;2022-10-31T14:14:39;27.70;48.90
17399;DHT22;8817;48.170;8.592;2022-10-31T14:17:19;27.90;48.40
17399;DHT22;8817;48.170;8.592;2022-10-31T14:19:59;27.90;47.60
17399;DHT22;8817;48.170;8.592;2022-10-31T14:22:30;27.90;47.20
17399;DHT22;8817;48.170;8.592;2022-10-31T14:24:57;27.90;46.80
17399;DHT22;8817;48.170;8.592;2022-10-31T14:27:45;27.90;46.60
17399;DHT22;8817;48.170;8.592;2022-10-31T14:30:17;27.80;46.50
17399;DHT22;8817;48.170;8.592;2022-10-31T14:32:50;27.70;46.20
17399;DHT22;8817;48.170;8.592;2022-10-31T14:35:18;27.60;46.20
17399;DHT22;8817;48.170;8.592;2022-10-31T14:40:58;27.30;46.00
17399;DHT22;8817;48.170;8.592;2022-10-31T14:43:57;27.30;45.80
17399;DHT22;8817;48.170;8.592;2022-10-31T14:46:39;27.20;45.90
17399;DHT22;8817;48.170;8.592;2022-10-31T14:49:23;27.10;45.60
17399;DHT22;8817;48.170;8.592;2022-10-31T14:51:52;27.00;45.60
17399;DHT22;8817;48.170;8.592;2022-10-31T14:54:25;26.90;45.60
17399;DHT22;8817;48.170;8.592;2022-10-31T14:56:56;26.80;45.60
17399;DHT22;8817;48.170;8.592;2022-10-31T14:59:30;26.70;45.70
17399;DHT22;8817;48.170;8.592;2022-10-31T15:02:00;26.70;45.90
17399;DHT22;8817;48.170;8.592;2022-10-31T15:04:29;26.70;46.10
17399;DHT22;8817;48.170;8.592;2022-10-31T15:07:02;26.80;46.40
17399;DHT22;8817;48.170;8.592;2022-10-31T15:09:34;26.80;46.40
17399;DHT22;8817;48.170;8.592;2022-10-31T15:12:16;26.90;46.40
17399;DHT22;8817;48.170;8.592;2022-10-31T15:14:48;27.00;46.50
17399;DHT22;8817;48.170;8.592;2022-10-31T15:17:15;27.10;46.10
17399;DHT22;8817;48.170;8.592;2022-10-31T15:19:43;27.10;45.70
17399;DHT22;8817;48.170;8.592;2022-10-31T15:22:14;27.00;45.30
17399;DHT22;8817;48.170;8.592;2022-10-31T15:24:42;27.00;45.10
17399;DHT22;8817;48.170;8.592;2022-10-31T15:27:12;26.90;45.00
17399;DHT22;8817;48.170;8.592;2022-10-31T15:29:49;26.80;44.80
17399;DHT22;8817;48.170;8.592;2022-10-31T15:32:19;26.60;44.70
17399;DHT22;8817;48.170;8.592;2022-10-31T15:34:49;26.40;44.60
17399;DHT22;8817;48.170;8.592;2022-10-31T15:37:18;26.30;44.50
17399;DHT22;8817;48.170;8.592;2022-10-31T15:39:47;26.10;44.50
17399;DHT22;8817;48.170;8.592;2022-10-31T15:42:21;25.90;44.40
17399;DHT22;8817;48.170;8.592;2022-10-31T15:44:59;25.70;44.40
17399;DHT22;8817;48.170;8.592;2022-10-31T15:47:28;25.50;44.30
17399;DHT22;8817;48.170;8.592;2022-10-31T15:49:57;25.40;44.30
17399;DHT22;8817;48.170;8.592;2022-10-31T15:52:28;25.20;44.30
17399;DHT22;8817;48.170;8.592;2022-10-31T15:54:58;25.00;44.20
17399;DHT22;8817;48.170;8.592;2022-10-31T15:57:27;24.80;44.30
17399;DHT22;8817;48.170;8.592;2022-10-31T15:59:55;24.70;44.30
17399;DHT22;8817;48.170;8.592;2022-10-31T16:02:24;24.50;44.30
17399;DHT22;8817;48.170;8.592;2022-10-31T16:04:54;24.40;44.40
17399;DHT22;8817;48.170;8.592;2022-10-31T16:07:21;24.20;44.40
17399;DHT22;8817;48.170;8.592;2022-10-31T16:09:53;24.00;44.40
17399;DHT22;8817;48.170;8.592;2022-10-31T16:12:22;23.90;44.40
17399;DHT22;8817;48.170;8.592;2022-10-31T16:14:50;23.70;44.50
17399;DHT22;8817;48.170;8.592;2022-10-31T16:17:20;23.60;44.50
17399;DHT22;8817;48.170;8.592;2022-10-31T16:19:51;23.40;44.60
17399;DHT22;8817;48.170;8.592;2022-10-31T16:22:22;23.30;44.60